createdAt,value
2018-01-07T00:00:34.911Z,5.77
2018-01-07T00:03:03.379Z,4.70
2018-01-07T00:05:31.679Z,5.60
2018-01-07T00:07:59.997Z,4.87
2018-01-07T00:10:27.540Z,5.60
2018-01-07T00:12:55.863Z,4.87
2018-01-07T00:15:23.404Z,5.27
2018-01-07T00:17:50.963Z,6.20
2018-01-07T00:20:19.275Z,5.63
2018-01-07T00:22:46.962Z,9.70
2018-01-07T00:25:14.511Z,8.33
2018-01-07T00:27:42.807Z,5.13
2018-01-07T00:30:10.365Z,8.30
2018-01-07T00:32:38.664Z,6.63
2018-01-07T00:35:06.219Z,9.80
2018-01-07T00:37:34.519Z,6.00
2018-01-07T00:40:02.853Z,7.13
2018-01-07T00:42:30.397Z,15.73
2018-01-07T00:44:57.951Z,8.43
2018-01-07T00:47:26.286Z,6.33
2018-01-07T00:49:53.847Z,5.43
2018-01-07T00:52:21.436Z,5.70
2018-01-07T00:54:48.984Z,6.10
2018-01-07T00:57:16.533Z,6.17
2018-01-07T00:59:44.271Z,2.20
2018-01-07T01:02:11.804Z,2.07
2018-01-07T01:04:39.446Z,5.10
2018-01-07T01:07:07.002Z,4.20
2018-01-07T01:09:35.402Z,5.73
2018-01-07T01:12:03.719Z,5.83
2018-01-07T01:14:31.251Z,2.63
2018-01-07T01:16:58.807Z,3.23
2018-01-07T01:19:26.335Z,7.33
2018-01-07T01:21:53.884Z,3.37
2018-01-07T01:24:21.408Z,2.20
2018-01-07T01:26:48.968Z,1.60
2018-01-07T01:29:16.549Z,2.67
2018-01-07T01:31:44.133Z,2.40
2018-01-07T01:34:11.769Z,2.57
2018-01-07T01:36:39.392Z,1.97
2018-01-07T01:39:07.833Z,1.93
2018-01-07T01:41:35.409Z,2.50
2018-01-07T01:44:02.938Z,1.83
2018-01-07T01:46:31.976Z,2.20
2018-01-07T01:49:11.442Z,2.47
2018-01-07T01:51:39.080Z,2.23
2018-01-07T01:54:06.631Z,1.50
2018-01-07T01:56:34.180Z,8.47
2018-01-07T01:59:01.716Z,2.07
2018-01-07T02:01:29.248Z,2.00
2018-01-07T02:03:56.805Z,5.80
2018-01-07T02:06:24.341Z,3.10
2018-01-07T02:08:51.909Z,3.67
2018-01-07T02:11:19.440Z,1.73
2018-01-07T02:13:47.762Z,1.90
2018-01-07T02:16:15.302Z,5.50
2018-01-07T02:18:43.630Z,1.63
2018-01-07T02:21:11.171Z,2.53
2018-01-07T02:23:39.506Z,1.60
2018-01-07T02:26:07.034Z,1.73
2018-01-07T02:28:34.587Z,1.53
2018-01-07T02:31:02.891Z,2.00
2018-01-07T02:33:30.448Z,5.37
2018-01-07T02:35:57.990Z,1.20
2018-01-07T02:38:25.545Z,1.30
2018-01-07T02:40:53.112Z,1.30
2018-01-07T02:43:20.645Z,1.60
2018-01-07T02:45:48.968Z,1.53
2018-01-07T02:48:16.560Z,1.80
2018-01-07T02:50:44.092Z,1.77
2018-01-07T02:53:11.636Z,1.87
2018-01-07T02:55:39.978Z,1.17
2018-01-07T02:58:07.532Z,2.07
2018-01-07T03:00:35.095Z,7.50
2018-01-07T03:03:02.641Z,19.80
2018-01-07T03:05:30.973Z,13.90
2018-01-07T03:07:59.427Z,7.10
2018-01-07T03:10:27.759Z,2.90
2018-01-07T03:12:55.301Z,2.13
2018-01-07T03:15:23.614Z,4.97
2018-01-07T03:17:51.169Z,5.60
2018-01-07T03:20:18.718Z,1.67
2018-01-07T03:22:47.044Z,1.87
2018-01-07T03:25:14.587Z,4.33
2018-01-07T03:27:42.917Z,1.90
2018-01-07T03:30:10.464Z,1.80
2018-01-07T03:32:38.024Z,4.00
2018-01-07T03:35:06.334Z,5.10
2018-01-07T03:37:33.909Z,5.43
2018-01-07T03:40:01.450Z,3.23
2018-01-07T03:42:29.780Z,2.27
2018-01-07T03:44:57.315Z,2.00
2018-01-07T03:47:25.636Z,2.60
2018-01-07T03:49:56.330Z,2.37
2018-01-07T03:52:23.901Z,5.67
2018-01-07T03:54:51.436Z,2.50
2018-01-07T03:57:18.977Z,2.83
2018-01-07T03:59:46.536Z,4.20
2018-01-07T04:02:14.847Z,1.93
2018-01-07T04:04:42.409Z,2.90
2018-01-07T04:07:10.030Z,3.90
2018-01-07T04:09:37.700Z,4.17
2018-01-07T04:12:06.060Z,2.60
2018-01-07T04:14:33.617Z,2.37
2018-01-07T04:17:01.160Z,8.20
2018-01-07T04:19:28.733Z,2.50
2018-01-07T04:21:57.049Z,1.50
2018-01-07T04:24:24.604Z,3.07
2018-01-07T04:26:52.141Z,1.33
2018-01-07T04:29:19.724Z,3.10
2018-01-07T04:31:47.285Z,5.33
2018-01-07T04:34:14.824Z,4.03
2018-01-07T04:36:42.380Z,1.40
2018-01-07T04:39:10.756Z,2.93
2018-01-07T04:41:39.082Z,1.43
2018-01-07T04:44:06.631Z,2.53
2018-01-07T04:46:34.196Z,1.80
2018-01-07T04:49:02.513Z,1.17
2018-01-07T04:51:30.071Z,1.27
2018-01-07T04:53:57.608Z,0.83
2018-01-07T04:56:25.168Z,1.90
2018-01-07T04:58:52.710Z,0.90
2018-01-07T05:01:20.308Z,0.90
2018-01-07T05:03:47.908Z,1.03
2018-01-07T05:06:16.238Z,1.10
2018-01-07T05:08:43.848Z,2.33
2018-01-07T05:11:11.393Z,1.03
2018-01-07T05:13:38.946Z,0.90
2018-01-07T05:16:06.534Z,2.90
2018-01-07T05:18:34.086Z,1.87
2018-01-07T05:21:01.640Z,1.33
2018-01-07T05:23:29.976Z,1.50
2018-01-07T05:25:58.277Z,1.13
2018-01-07T05:28:25.844Z,0.90
2018-01-07T05:30:53.425Z,1.00
2018-01-07T05:33:21.014Z,1.30
2018-01-07T05:35:48.568Z,0.97
2018-01-07T05:38:16.120Z,2.33
2018-01-07T05:40:43.672Z,0.67
2018-01-07T05:43:13.073Z,1.30
2018-01-07T05:45:40.622Z,2.00
2018-01-07T05:48:08.944Z,1.00
2018-01-07T05:50:36.497Z,0.77
2018-01-07T05:53:04.840Z,2.50
2018-01-07T05:55:32.403Z,0.73
2018-01-07T05:57:59.942Z,2.33
2018-01-07T06:00:27.515Z,0.70
2018-01-07T06:02:55.060Z,4.20
2018-01-07T06:05:23.397Z,1.07
2018-01-07T06:07:50.944Z,0.70
2018-01-07T06:10:18.604Z,1.33
2018-01-07T06:12:47.010Z,1.00
2018-01-07T06:15:14.618Z,2.47
2018-01-07T06:17:42.177Z,1.70
2018-01-07T06:20:09.748Z,0.73
2018-01-07T06:22:37.289Z,1.93
2018-01-07T06:25:04.850Z,1.13
2018-01-07T06:27:33.176Z,0.60
2018-01-07T06:30:00.753Z,0.60
2018-01-07T06:32:28.317Z,2.50
2018-01-07T06:34:55.860Z,3.53
2018-01-07T06:37:24.176Z,1.30
2018-01-07T06:39:51.713Z,1.37
2018-01-07T06:42:20.102Z,1.13
2018-01-07T06:44:47.669Z,1.23
2018-01-07T06:47:15.991Z,0.80
2018-01-07T06:49:43.531Z,2.10
2018-01-07T06:52:11.889Z,0.40
2018-01-07T06:54:39.449Z,1.13
2018-01-07T06:57:07.052Z,0.60
2018-01-07T06:59:35.412Z,2.30
2018-01-07T07:02:03.040Z,1.53
2018-01-07T07:04:31.340Z,3.83
2018-01-07T07:06:58.873Z,0.70
2018-01-07T07:09:26.429Z,1.63
2018-01-07T07:11:53.968Z,1.80
2018-01-07T07:14:21.531Z,0.90
2018-01-07T07:16:49.073Z,0.87
2018-01-07T07:19:17.393Z,1.17
2018-01-07T07:21:44.955Z,5.03
2018-01-07T07:24:12.549Z,0.50
2018-01-07T07:26:40.089Z,6.43
2018-01-07T07:29:08.412Z,3.00
2018-01-07T07:31:35.957Z,0.80
2018-01-07T07:34:03.517Z,1.17
2018-01-07T07:36:31.844Z,1.00
2018-01-07T07:38:59.539Z,1.07
2018-01-07T07:41:27.098Z,2.50
2018-01-07T07:43:54.673Z,0.80
2018-01-07T07:46:22.228Z,10.10
2018-01-07T07:48:49.812Z,2.20
2018-01-07T07:51:17.376Z,1.83
2018-01-07T07:53:44.969Z,2.63
2018-01-07T07:56:12.547Z,4.37
2018-01-07T07:58:40.168Z,1.80
2018-01-07T08:01:07.841Z,2.83
2018-01-07T08:03:36.257Z,4.97
2018-01-07T08:06:03.819Z,7.23
2018-01-07T08:08:31.417Z,5.70
2018-01-07T08:10:59.010Z,6.40
2018-01-07T08:13:26.661Z,8.03
2018-01-07T08:15:54.232Z,1.47
2018-01-07T08:18:21.772Z,3.10
2018-01-07T08:20:49.327Z,3.10
2018-01-07T08:23:17.645Z,5.20
2018-01-07T08:25:45.212Z,3.90
2018-01-07T08:28:12.924Z,1.30
2018-01-07T08:30:40.520Z,5.43
2018-01-07T08:33:08.125Z,8.03
2018-01-07T08:35:35.696Z,4.00
2018-01-07T08:38:03.257Z,1.93
2018-01-07T08:40:31.604Z,3.10
2018-01-07T08:42:59.196Z,6.63
2018-01-07T08:45:26.736Z,3.60
2018-01-07T08:47:54.296Z,6.50
2018-01-07T08:50:21.836Z,3.30
2018-01-07T08:52:50.173Z,6.10
2018-01-07T08:55:17.732Z,2.40
2018-01-07T08:57:45.289Z,3.70
2018-01-07T09:00:12.837Z,5.43
2018-01-07T09:02:41.169Z,3.37
2018-01-07T09:05:08.709Z,5.70
2018-01-07T09:07:36.291Z,1.60
2018-01-07T09:10:03.861Z,6.20
2018-01-07T09:12:31.632Z,2.20
2018-01-07T09:14:59.252Z,7.33
2018-01-07T09:17:26.811Z,2.50
2018-01-07T09:19:54.455Z,4.63
2018-01-07T09:22:22.016Z,2.97
2018-01-07T09:24:50.460Z,6.40
2018-01-07T09:27:18.112Z,4.27
2018-01-07T09:29:45.685Z,8.13
2018-01-07T09:32:13.242Z,3.50
2018-01-07T09:34:40.941Z,1.53
2018-01-07T09:37:08.545Z,1.77
2018-01-07T09:39:36.247Z,6.60
2018-01-07T09:42:03.913Z,2.60
2018-01-07T09:44:32.229Z,3.43
2018-01-07T09:47:00.756Z,3.17
2018-01-07T09:49:29.286Z,2.07
2018-01-07T09:51:57.613Z,1.93
2018-01-07T09:54:25.156Z,6.00
2018-01-07T09:56:53.482Z,1.63
2018-01-07T09:59:21.016Z,1.83
2018-01-07T10:01:49.333Z,3.10
2018-01-07T10:04:16.869Z,4.07
2018-01-07T10:06:45.172Z,3.90
2018-01-07T10:09:13.497Z,6.20
2018-01-07T10:11:41.039Z,4.90
2018-01-07T10:14:08.596Z,2.40
2018-01-07T10:16:36.898Z,5.17
2018-01-07T10:19:04.456Z,2.93
2018-01-07T10:21:32.762Z,2.90
2018-01-07T10:24:00.326Z,4.50
2018-01-07T10:26:27.868Z,5.10
2018-01-07T10:28:55.430Z,2.10
2018-01-07T10:31:22.973Z,1.80
2018-01-07T10:33:50.541Z,4.93
2018-01-07T10:36:18.089Z,3.73
2018-01-07T10:38:45.672Z,3.00
2018-01-07T10:41:13.213Z,3.20
2018-01-07T10:43:41.524Z,2.13
2018-01-07T10:46:09.186Z,3.63
2018-01-07T10:48:37.014Z,2.70
2018-01-07T10:51:04.636Z,2.00
2018-01-07T10:53:33.053Z,3.13
2018-01-07T10:56:00.702Z,2.03
2018-01-07T10:58:28.257Z,5.57
2018-01-07T11:01:02.234Z,1.60
2018-01-07T11:03:29.820Z,3.00
2018-01-07T11:05:58.282Z,5.60
2018-01-07T11:08:25.846Z,3.73
2018-01-07T11:10:53.404Z,5.80
2018-01-07T11:13:20.952Z,5.33
2018-01-07T11:15:48.512Z,3.47
2018-01-07T11:18:16.087Z,2.80
2018-01-07T11:20:43.653Z,3.10
2018-01-07T11:23:11.192Z,2.77
2018-01-07T11:25:38.752Z,2.30
2018-01-07T11:28:06.329Z,4.73
2018-01-07T11:30:34.025Z,2.77
2018-01-07T11:33:01.640Z,4.10
2018-01-07T11:35:29.970Z,2.40
2018-01-07T11:37:57.582Z,2.80
2018-01-07T11:40:25.149Z,5.50
2018-01-07T11:42:52.710Z,2.87
2018-01-07T11:45:20.253Z,3.40
2018-01-07T11:47:47.832Z,5.03
2018-01-07T11:50:15.455Z,1.77
2018-01-07T11:52:43.792Z,2.30
2018-01-07T11:55:11.328Z,2.70
2018-01-07T11:57:39.656Z,3.33
2018-01-07T12:00:08.001Z,3.27
2018-01-07T12:02:35.581Z,3.63
2018-01-07T12:05:03.160Z,4.33
2018-01-07T12:07:30.768Z,3.73
2018-01-07T12:09:58.566Z,6.57
2018-01-07T12:12:26.195Z,4.27
2018-01-07T12:14:53.745Z,2.40
2018-01-07T12:17:22.064Z,4.27
2018-01-07T12:19:49.639Z,3.83
2018-01-07T12:22:17.198Z,3.43
2018-01-07T12:24:44.770Z,4.57
2018-01-07T12:27:12.332Z,2.97
2018-01-07T12:29:39.899Z,4.70
2018-01-07T12:32:07.434Z,2.47
2018-01-07T12:34:34.992Z,3.90
2018-01-07T12:37:03.298Z,3.50
2018-01-07T12:39:30.958Z,6.20
2018-01-07T12:41:59.376Z,6.27
2018-01-07T12:44:26.937Z,2.90
2018-01-07T12:46:54.476Z,2.60
2018-01-07T12:49:22.026Z,3.10
2018-01-07T12:51:49.597Z,1.43
2018-01-07T12:54:17.138Z,3.17
2018-01-07T12:56:45.478Z,6.13
2018-01-07T12:59:13.017Z,1.80
2018-01-07T13:01:41.341Z,9.00
2018-01-07T13:04:08.885Z,4.20
2018-01-07T13:06:36.457Z,2.70
2018-01-07T13:09:04.000Z,2.67
2018-01-07T13:11:31.572Z,2.73
2018-01-07T13:13:59.214Z,2.10
2018-01-07T13:16:26.781Z,2.10
2018-01-07T13:18:54.323Z,1.73
2018-01-07T13:21:21.904Z,3.77
2018-01-07T13:23:49.452Z,1.83
2018-01-07T13:26:17.754Z,2.80
2018-01-07T13:28:46.248Z,1.73
2018-01-07T13:31:13.792Z,1.57
2018-01-07T13:33:43.115Z,1.53
2018-01-07T13:36:11.417Z,1.53
2018-01-07T13:38:38.985Z,1.30
2018-01-07T13:41:06.538Z,1.57
2018-01-07T13:43:34.881Z,6.03
2018-01-07T13:46:02.416Z,2.93
2018-01-07T13:48:29.999Z,2.47
2018-01-07T13:50:57.545Z,3.27
2018-01-07T13:53:30.528Z,1.90
2018-01-07T13:55:58.860Z,5.13
2018-01-07T13:58:26.421Z,4.37
2018-01-07T14:00:53.964Z,7.30
2018-01-07T14:03:28.488Z,3.93
2018-01-07T14:05:56.045Z,4.77
2018-01-07T14:08:23.580Z,5.53
2018-01-07T14:10:51.139Z,7.40
2018-01-07T14:13:18.680Z,4.80
2018-01-07T14:15:46.244Z,5.83
2018-01-07T14:18:13.790Z,11.53
2018-01-07T14:20:41.410Z,5.97
2018-01-07T14:23:08.921Z,12.00
2018-01-07T14:25:36.490Z,10.10
2018-01-07T14:28:04.041Z,11.30
2018-01-07T14:30:32.441Z,6.07
2018-01-07T14:33:00.934Z,10.73
2018-01-07T14:35:28.719Z,9.27
2018-01-07T14:37:56.253Z,6.20
2018-01-07T14:40:24.576Z,4.43
2018-01-07T14:42:52.117Z,5.00
2018-01-07T14:45:20.456Z,7.03
2018-01-07T14:47:47.991Z,6.13
2018-01-07T14:50:16.292Z,4.33
2018-01-07T14:52:43.850Z,7.27
2018-01-07T14:55:11.442Z,11.13
2018-01-07T14:57:39.007Z,6.50
2018-01-07T15:00:06.550Z,8.73
2018-01-07T15:02:34.116Z,9.00
2018-01-07T15:05:01.699Z,8.83
2018-01-07T15:07:30.121Z,4.50
2018-01-07T15:09:57.671Z,4.17
2018-01-07T15:12:25.997Z,6.67
2018-01-07T15:14:53.536Z,5.80
2018-01-07T15:17:21.108Z,5.43
2018-01-07T15:19:48.668Z,10.63
2018-01-07T15:22:17.004Z,5.13
2018-01-07T15:24:44.555Z,7.30
2018-01-07T15:27:12.108Z,12.60
2018-01-07T15:29:40.436Z,7.73
2018-01-07T15:32:07.977Z,7.30
2018-01-07T15:34:35.548Z,5.47
2018-01-07T15:37:03.115Z,5.07
2018-01-07T15:39:31.444Z,9.53
2018-01-07T15:41:59.028Z,11.27
2018-01-07T15:44:26.626Z,9.03
2018-01-07T15:46:54.177Z,6.13
2018-01-07T15:49:21.743Z,14.80
2018-01-07T15:51:49.289Z,7.03
2018-01-07T15:54:16.852Z,11.80
2018-01-07T15:56:44.397Z,9.80
2018-01-07T15:59:20.491Z,17.07
2018-01-07T16:01:48.597Z,10.13
2018-01-07T16:04:16.156Z,7.43
2018-01-07T16:06:43.756Z,15.33
2018-01-07T16:09:11.313Z,13.93
2018-01-07T16:11:43.796Z,18.13
2018-01-07T16:14:11.989Z,16.30
2018-01-07T16:16:39.556Z,7.03
2018-01-07T16:19:07.100Z,9.80
2018-01-07T16:21:34.668Z,11.30
2018-01-07T16:24:02.317Z,6.20
2018-01-07T16:26:29.894Z,11.50
2018-01-07T16:29:04.078Z,6.13
2018-01-07T16:31:38.409Z,8.33
2018-01-07T16:34:06.458Z,8.70
2018-01-07T16:36:34.021Z,15.93
2018-01-07T16:39:02.337Z,8.30
2018-01-07T16:41:29.921Z,8.87
2018-01-07T16:43:57.480Z,12.43
2018-01-07T16:46:25.043Z,7.97
2018-01-07T16:48:52.589Z,13.00
2018-01-07T16:51:20.900Z,11.27
2018-01-07T16:53:48.475Z,12.13
2018-01-07T16:56:16.020Z,13.33
2018-01-07T16:58:44.357Z,13.33
2018-01-07T17:01:11.900Z,7.50
2018-01-07T17:03:39.465Z,13.17
2018-01-07T17:06:07.781Z,10.03
2018-01-07T17:08:35.341Z,13.40
2018-01-07T17:11:02.893Z,10.67
2018-01-07T17:13:31.233Z,6.73
2018-01-07T17:15:58.781Z,13.47
2018-01-07T17:18:26.364Z,13.40
2018-01-07T17:20:53.911Z,16.73
2018-01-07T17:23:21.465Z,10.67
2018-01-07T17:25:49.804Z,12.03
2018-01-07T17:28:17.366Z,8.17
2018-01-07T17:30:44.932Z,12.87
2018-01-07T17:33:12.480Z,14.07
2018-01-07T17:35:40.806Z,12.50
2018-01-07T17:38:08.370Z,14.33
2018-01-07T17:40:35.933Z,6.80
2018-01-07T17:43:03.486Z,12.97
2018-01-07T17:45:31.057Z,13.10
2018-01-07T17:47:59.372Z,11.27
2018-01-07T17:50:26.940Z,12.47
2018-01-07T17:52:54.509Z,21.43
2018-01-07T17:55:22.072Z,15.03
2018-01-07T17:57:51.562Z,10.97
2018-01-07T18:00:19.884Z,6.90
2018-01-07T18:02:47.455Z,12.00
2018-01-07T18:05:15.002Z,11.47
2018-01-07T18:07:43.345Z,12.60
2018-01-07T18:10:10.888Z,8.83
2018-01-07T18:12:38.523Z,14.73
2018-01-07T18:15:06.044Z,9.60
2018-01-07T18:17:33.609Z,9.87
2018-01-07T18:20:01.166Z,17.33
2018-01-07T18:22:28.754Z,18.50
2018-01-07T18:24:56.313Z,16.80
2018-01-07T18:27:27.092Z,12.67
2018-01-07T18:29:54.644Z,12.20
2018-01-07T18:32:22.216Z,14.33
2018-01-07T18:34:49.772Z,25.40
2018-01-07T18:37:17.328Z,13.70
2018-01-07T18:39:45.665Z,21.90
2018-01-07T18:42:13.215Z,21.97
2018-01-07T18:44:40.776Z,11.00
2018-01-07T18:47:09.093Z,12.80
2018-01-07T18:49:36.662Z,15.77
2018-01-07T18:52:04.218Z,12.63
2018-01-07T18:54:33.743Z,15.23
2018-01-07T18:57:01.285Z,9.50
2018-01-07T18:59:29.601Z,8.37
2018-01-07T19:01:57.486Z,10.33
2018-01-07T19:04:25.049Z,8.73
2018-01-07T19:06:52.613Z,10.30
2018-01-07T19:09:20.917Z,9.93
2018-01-07T19:11:48.477Z,12.30
2018-01-07T19:14:16.049Z,8.40
2018-01-07T19:16:43.618Z,20.00
2018-01-07T19:19:11.181Z,11.40
2018-01-07T19:21:39.290Z,15.73
2018-01-07T19:24:06.842Z,10.30
2018-01-07T19:26:35.154Z,12.80
2018-01-07T19:29:02.753Z,13.73
2018-01-07T19:31:30.309Z,11.80
2018-01-07T19:33:58.057Z,13.00
2018-01-07T19:36:25.595Z,11.73
2018-01-07T19:38:53.205Z,13.13
2018-01-07T19:41:20.744Z,14.20
2018-01-07T19:43:48.308Z,13.13
2018-01-07T19:46:15.856Z,13.10
2018-01-07T19:48:43.417Z,14.93
2018-01-07T19:51:10.970Z,16.10
2018-01-07T19:53:38.512Z,12.70
2018-01-07T19:56:06.854Z,12.93
2018-01-07T19:58:34.401Z,14.77
2018-01-07T20:01:01.976Z,13.97
2018-01-07T20:03:29.521Z,8.47
2018-01-07T20:05:57.898Z,16.03
2018-01-07T20:08:25.445Z,10.17
2018-01-07T20:10:53.014Z,9.07
2018-01-07T20:13:20.565Z,13.00
2018-01-07T20:15:48.153Z,12.13
2018-01-07T20:18:15.696Z,11.23
2018-01-07T20:20:43.266Z,14.37
2018-01-07T20:23:10.832Z,13.00
2018-01-07T20:25:38.416Z,16.70
2018-01-07T20:28:05.963Z,14.40
2018-01-07T20:30:34.363Z,9.13
2018-01-07T20:33:02.728Z,9.50
2018-01-07T20:35:30.284Z,11.83
2018-01-07T20:37:57.876Z,14.60
2018-01-07T20:40:26.266Z,13.13
2018-01-07T20:42:54.605Z,13.63
2018-01-07T20:45:22.157Z,15.33
2018-01-07T20:47:49.723Z,15.47
2018-01-07T20:50:17.279Z,15.87
2018-01-07T20:52:45.613Z,11.00
2018-01-07T20:55:13.157Z,13.00
2018-01-07T20:57:40.720Z,10.43
2018-01-07T21:00:09.052Z,12.73
2018-01-07T21:02:37.021Z,12.17
2018-01-07T21:05:04.628Z,15.13
2018-01-07T21:07:32.977Z,12.97
2018-01-07T21:10:00.686Z,13.07
2018-01-07T21:12:28.282Z,17.47
2018-01-07T21:14:55.918Z,16.73
2018-01-07T21:17:30.508Z,16.57
2018-01-07T21:19:59.631Z,15.20
2018-01-07T21:22:27.192Z,16.07
2018-01-07T21:24:54.789Z,15.30
2018-01-07T21:27:22.382Z,11.87
2018-01-07T21:29:49.980Z,14.10
2018-01-07T21:32:18.372Z,19.03
2018-01-07T21:34:45.940Z,19.60
2018-01-07T21:37:13.586Z,30.30
2018-01-07T21:39:41.788Z,26.93
2018-01-07T21:42:09.381Z,21.20
2018-01-07T21:44:36.929Z,21.17
2018-01-07T21:47:05.350Z,23.97
2018-01-07T21:49:32.952Z,47.83
2018-01-07T21:52:00.635Z,35.03
2018-01-07T21:54:28.228Z,36.67
2018-01-07T21:56:55.826Z,33.90
2018-01-07T21:59:23.389Z,28.87
2018-01-07T22:02:03.514Z,21.27
2018-01-07T22:07:38.405Z,16.47
2018-01-07T22:10:06.009Z,11.40
2018-01-07T22:12:33.646Z,11.50
2018-01-07T22:15:07.666Z,14.37
2018-01-07T22:17:36.688Z,14.00
2018-01-07T22:20:04.236Z,12.13
2018-01-07T22:22:31.817Z,8.23
2018-01-07T22:24:59.432Z,14.57
2018-01-07T22:27:27.003Z,16.00
2018-01-07T22:29:54.590Z,15.90
2018-01-07T22:32:22.999Z,13.57
2018-01-07T22:34:51.328Z,13.83
2018-01-07T22:37:18.885Z,16.77
2018-01-07T22:39:46.453Z,15.80
2018-01-07T22:42:14.031Z,16.50
2018-01-07T22:44:41.589Z,12.27
2018-01-07T22:47:09.173Z,15.07
2018-01-07T22:49:36.721Z,13.83
2018-01-07T22:52:04.293Z,16.30
2018-01-07T22:54:33.599Z,15.40
2018-01-07T22:57:01.184Z,14.93
2018-01-07T22:59:28.760Z,16.00
2018-01-07T23:01:57.077Z,13.20
2018-01-07T23:04:24.644Z,18.13
2018-01-07T23:06:52.196Z,11.07
2018-01-07T23:09:19.909Z,13.37
2018-01-07T23:11:47.450Z,23.03
2018-01-07T23:14:15.021Z,15.00
2018-01-07T23:16:42.570Z,15.67
2018-01-07T23:19:10.896Z,15.20
2018-01-07T23:21:38.456Z,18.80
2018-01-07T23:24:06.026Z,11.60
2018-01-07T23:26:33.604Z,20.73
2018-01-07T23:29:01.180Z,20.57
2018-01-07T23:31:28.741Z,14.23
2018-01-07T23:33:56.300Z,16.13
2018-01-07T23:36:24.630Z,16.60
2018-01-07T23:38:52.169Z,18.27
2018-01-07T23:41:19.775Z,18.07
2018-01-07T23:43:47.327Z,23.30
2018-01-07T23:46:14.895Z,13.13
2018-01-07T23:48:42.436Z,18.83
2018-01-07T23:51:10.006Z,16.00
2018-01-07T23:53:37.572Z,18.40
2018-01-07T23:56:05.121Z,18.97
2018-01-07T23:58:32.697Z,16.33
